Time;durP1;ratioP1;P1;durP2;ratioP2;P2;SDS_P1;SDS_P2;PMS_P1;PMS_P2;Temp;Humidity;BMP_temperature;BMP_pressure;BME280_temperature;BME280_humidity;BME280_pressure;Samples;Min_cycle;Max_cycle;Signal;HPM_P1;HPM_P2
2023/12/09 00:00:07;;;;;;;3.85;3.60;;;;;;;5.94;100.00;100538.50;6085751;23;20703;-74
2023/12/09 00:02:35;;;;;;;8.30;3.58;;;;;;;5.91;100.00;100516.91;6030339;23;20014;-74
2023/12/09 00:05:08;;;;;;;4.22;3.95;;;;;;;6.00;100.00;100545.28;6083880;23;20064;-74
2023/12/09 00:07:35;;;;;;;6.60;6.20;;;;;;;6.35;100.00;100582.22;6051703;23;20030;-75
2023/12/09 00:10:02;;;;;;;4.22;3.90;;;;;;;6.36;100.00;100576.13;6083578;23;20638;-72
2023/12/09 00:12:29;;;;;;;3.90;3.70;;;;;;;5.91;100.00;100490.88;6058389;23;20146;-73
2023/12/09 00:14:56;;;;;;;4.30;4.10;;;;;;;6.07;100.00;100519.84;6056023;23;20022;-76
2023/12/09 00:17:27;;;;;;;6.78;4.50;;;;;;;6.37;100.00;100565.66;6030085;23;20143;-76
2023/12/09 00:19:59;;;;;;;4.63;4.32;;;;;;;6.37;100.00;100556.97;6083164;23;20014;-74
2023/12/09 00:22:26;;;;;;;;;;;;;;;6.33;100.00;100545.78;6035323;23;21300;-75
2023/12/09 00:24:53;;;;;;;3.78;3.58;;;;;;;5.95;100.00;100485.56;6086838;23;19930;-73
2023/12/09 00:27:20;;;;;;;4.70;4.10;;;;;;;5.77;100.00;100474.00;6055368;23;20112;-74
2023/12/09 00:29:53;;;;;;;;;;;;;;;6.19;100.00;100535.91;6081125;23;20218;-72
2023/12/09 00:32:20;;;;;;;4.95;4.57;;;;;;;5.83;100.00;100474.66;6046324;23;19914;-76
2023/12/09 00:34:47;;;;;;;3.90;3.70;;;;;;;6.10;100.00;100538.00;6079348;23;20405;-73
2023/12/09 00:37:17;;;;;;;4.55;4.35;;;;;;;5.65;100.00;100461.41;6047863;23;20115;-74
2023/12/09 00:39:47;;;;;;;3.90;3.70;;;;;;;4.48;100.00;100275.59;6076319;23;20031;-74
2023/12/09 00:42:14;;;;;;;3.97;3.78;;;;;;;6.03;100.00;100533.91;6031817;23;20067;-76
2023/12/09 00:44:41;;;;;;;3.90;3.70;;;;;;;5.99;100.00;100536.63;6055423;23;20049;-76
2023/12/09 00:47:07;;;;;;;3.63;3.53;;;;;;;5.90;100.00;100526.50;6058030;23;20038;-75
2023/12/09 00:49:36;;;;;;;5.57;5.28;;;;;;;5.80;100.00;100525.13;6077011;23;20033;-74
2023/12/09 00:52:03;;;;;;;3.80;3.60;;;;;;;5.68;100.00;100523.78;6065517;23;20353;-73
2023/12/09 00:54:32;;;;;;;3.60;3.40;;;;;;;5.60;100.00;100531.03;6059493;23;20022;-72
2023/12/09 00:56:59;;;;;;;8.45;4.22;;;;;;;5.52;100.00;100535.63;6030632;23;20101;-71
2023/12/09 00:59:26;;;;;;;4.68;4.47;;;;;;;5.24;100.00;100499.28;6052265;23;20513;-73
2023/12/09 01:01:54;;;;;;;4.75;4.55;;;;;;;5.47;100.00;100550.53;6047122;23;20456;-74
2023/12/09 01:04:21;;;;;;;3.40;3.30;;;;;;;5.47;100.00;100554.03;6082844;23;20018;-73
2023/12/09 01:06:48;;;;;;;3.90;3.70;;;;;;;5.46;100.00;100561.88;6029575;23;20162;-73
2023/12/09 01:09:15;;;;;;;3.60;3.50;;;;;;;5.34;100.00;100550.13;6075687;23;20333;-72
2023/12/09 01:11:42;;;;;;;4.72;4.43;;;;;;;4.98;100.00;100494.03;6051370;23;20267;-74
2023/12/09 01:14:09;;;;;;;5.25;4.72;;;;;;;5.45;100.00;100573.16;6072631;23;20033;-75
2023/12/09 01:16:42;;;;;;;3.72;3.58;;;;;;;5.65;100.00;100593.34;6054895;23;20042;-74
2023/12/09 01:19:09;;;;;;;4.32;4.05;;;;;;;5.60;100.00;100583.09;6055981;23;20186;-74
2023/12/09 01:21:37;;;;;;;5.85;5.55;;;;;;;4.67;100.00;100443.91;6026122;23;20026;-75
2023/12/09 01:24:06;;;;;;;3.40;3.30;;;;;;;5.70;100.00;100583.63;6079629;23;20025;-75
2023/12/09 01:26:33;;;;;;;4.35;3.95;;;;;;;4.89;100.00;100436.25;6028708;23;20027;-75
2023/12/09 01:29:03;;;;;;;4.15;3.95;;;;;;;5.97;100.00;100606.16;6082916;23;20048;-74
2023/12/09 01:31:33;;;;;;;5.07;4.88;;;;;;;5.77;100.00;100572.97;6028587;23;20014;-73
2023/12/09 01:34:05;;;;;;;4.00;3.80;;;;;;;5.25;100.00;100460.22;6081522;23;20022;-73
2023/12/09 01:36:33;;;;;;;4.00;3.80;;;;;;;6.07;100.00;100595.41;6055696;23;20035;-74
2023/12/09 01:39:00;;;;;;;4.05;3.85;;;;;;;5.88;100.00;100549.13;6072689;23;20054;-74
2023/12/09 01:41:27;;;;;;;4.93;4.72;;;;;;;5.93;100.00;100560.25;6018516;23;20030;-74
2023/12/09 01:43:57;;;;;;;10.35;4.18;;;;;;;5.83;100.00;100550.19;6052785;23;20087;-74
2023/12/09 01:46:26;;;;;;;5.43;4.22;;;;;;;5.73;100.00;100544.44;6027564;23;20037;-74
2023/12/09 01:48:55;;;;;;;3.70;3.50;;;;;;;5.51;100.00;100513.09;6052113;23;20018;-73
2023/12/09 01:51:23;;;;;;;4.10;3.90;;;;;;;5.49;100.00;100515.78;6045728;23;20034;-75
2023/12/09 01:53:50;;;;;;;3.92;3.72;;;;;;;5.39;100.00;100520.44;6066889;23;20456;-74
2023/12/09 01:56:20;;;;;;;4.10;3.90;;;;;;;5.08;100.00;100488.53;6027220;23;20038;-74
2023/12/09 01:58:50;;;;;;;4.03;3.83;;;;;;;4.68;100.00;100443.03;6051344;23;20067;-75
2023/12/09 02:01:17;;;;;;;3.78;3.45;;;;;;;4.36;100.00;100411.94;6029277;23;20022;-75
2023/12/09 02:03:44;;;;;;;4.25;4.05;;;;;;;4.72;100.00;100461.06;6071303;23;20066;-76
2023/12/09 02:06:10;;;;;;;4.30;3.90;;;;;;;5.06;100.00;100517.19;6039846;23;20088;-76
2023/12/09 02:08:40;;;;;;;4.25;3.95;;;;;;;5.12;100.00;100527.38;6050619;23;20562;-73
2023/12/09 02:11:34;;;;;;;3.28;3.17;;;;;;;5.09;100.00;100543.13;6038611;23;20188;-73
2023/12/09 02:14:13;;;;;;;3.50;3.30;;;;;;;5.03;100.00;100534.63;6050597;23;20448;-71
2023/12/09 02:16:53;;;;;;;3.28;3.17;;;;;;;4.95;100.00;100527.94;6022185;23;20034;-75
2023/12/09 02:19:21;;;;;;;8.48;3.60;;;;;;;4.90;100.00;100523.78;6029376;23;20452;-74
2023/12/09 02:22:06;;;;;;;4.15;3.90;;;;;;;4.82;100.00;100523.19;6076581;23;20410;-73
2023/12/09 02:24:33;;;;;;;4.70;4.40;;;;;;;4.76;100.00;100513.81;6050906;23;20042;-73
2023/12/09 02:27:08;;;;;;;4.07;3.78;;;;;;;4.22;100.00;100434.06;6051387;23;20234;-76
2023/12/09 02:29:45;;;;;;;5.25;4.95;;;;;;;4.36;100.00;100473.44;6044864;23;20674;-71
2023/12/09 02:32:16;;;;;;;4.13;3.92;;;;;;;4.63;100.00;100528.94;6066498;23;20099;-76
2023/12/09 02:34:44;;;;;;;4.07;3.88;;;;;;;4.58;100.00;100531.66;6025356;23;20026;-73
2023/12/09 02:37:12;;;;;;;3.20;3.10;;;;;;;4.11;100.00;100455.13;6057319;23;20030;-73
2023/12/09 02:39:42;;;;;;;9.18;3.70;;;;;;;4.58;100.00;100562.84;6022726;23;20051;-73
2023/12/09 02:42:09;;;;;;;5.40;3.65;;;;;;;4.49;100.00;100546.66;6079448;23;20032;-73
2023/12/09 02:44:39;;;;;;;4.10;3.80;;;;;;;4.40;100.00;100527.88;6010934;23;20085;-73
2023/12/09 02:47:09;;;;;;;3.90;3.70;;;;;;;4.55;100.00;100544.75;6054623;23;20033;-73
2023/12/09 02:49:38;;;;;;;9.70;5.53;;;;;;;4.77;100.00;100577.88;6006632;23;20022;-72
2023/12/09 02:52:06;;;;;;;3.50;3.40;;;;;;;4.82;100.00;100590.78;6042655;23;20412;-72
2023/12/09 02:54:38;;;;;;;20.00;4.55;;;;;;;4.89;100.00;100598.34;6044048;23;20055;-71
2023/12/09 02:57:05;;;;;;;3.60;3.42;;;;;;;4.99;100.00;100609.28;6067071;23;20322;-74
2023/12/09 02:59:34;;;;;;;5.18;4.82;;;;;;;5.08;100.00;100608.19;6019149;23;20026;-72
2023/12/09 03:02:01;;;;;;;3.88;3.67;;;;;;;5.18;100.00;100620.84;6061794;23;20112;-74
2023/12/09 03:04:33;;;;;;;3.40;3.30;;;;;;;5.23;100.00;100612.03;6035238;23;20461;-73
2023/12/09 03:07:00;;;;;;;6.78;4.78;;;;;;;5.22;100.00;100607.75;6049984;23;20053;-73
2023/12/09 03:09:29;;;;;;;4.70;4.50;;;;;;;4.82;100.00;100538.78;6018292;23;20051;-74
2023/12/09 03:11:56;;;;;;;4.78;4.53;;;;;;;5.07;100.00;100575.25;6073638;23;20029;-74
2023/12/09 03:14:23;;;;;;;3.97;3.78;;;;;;;4.64;100.00;100509.00;6020481;23;20307;-72
2023/12/09 03:16:54;;;;;;;4.40;4.00;;;;;;;4.68;100.00;100521.00;6079277;23;20308;-73
2023/12/09 03:19:21;;;;;;;3.50;3.40;;;;;;;3.87;100.00;100408.25;6028423;23;20039;-74
2023/12/09 03:21:49;;;;;;;4.30;4.10;;;;;;;4.17;100.00;100458.41;6041820;23;20143;-74
2023/12/09 03:24:16;;;;;;;3.80;3.58;;;;;;;4.58;100.00;100533.41;6051188;23;20029;-73
2023/12/09 03:26:52;;;;;;;3.80;3.60;;;;;;;3.71;100.00;100414.75;6065778;23;20426;-71
2023/12/09 03:29:19;;;;;;;3.38;3.28;;;;;;;4.44;100.00;100538.19;6046360;23;20022;-73
2023/12/09 03:31:47;;;;;;;3.85;3.65;;;;;;;4.20;100.00;100499.03;6072641;23;20174;-75
2023/12/09 03:34:14;;;;;;;3.55;3.45;;;;;;;4.22;100.00;100512.81;6055519;23;20024;-74
2023/12/09 03:36:42;;;;;;;3.90;3.70;;;;;;;4.33;100.00;100528.94;6061287;23;20023;-72
2023/12/09 03:39:09;;;;;;;3.58;3.38;;;;;;;4.27;100.00;100531.72;6039766;23;20045;-73
2023/12/09 03:41:37;;;;;;;4.65;4.45;;;;;;;4.35;100.00;100542.75;6053393;23;20355;-74
2023/12/09 03:44:04;;;;;;;3.80;3.60;;;;;;;3.21;100.00;100368.59;6049839;23;20049;-74
2023/12/09 03:46:31;;;;;;;3.92;3.72;;;;;;;4.27;100.00;100555.09;6056376;23;20059;-73
2023/12/09 03:48:58;;;;;;;4.03;3.83;;;;;;;4.25;100.00;100553.44;6026703;23;20316;-73
2023/12/09 03:51:28;;;;;;;4.88;4.65;;;;;;;3.92;100.00;100491.19;6077843;23;20029;-73
2023/12/09 03:53:55;;;;;;;3.25;3.13;;;;;;;4.25;100.00;100551.72;6024514;23;20298;-74
2023/12/09 03:56:22;;;;;;;3.47;3.38;;;;;;;3.88;100.00;100498.19;6078039;23;20170;-73
2023/12/09 03:59:09;;;;;;;3.63;3.42;;;;;;;4.27;100.00;100572.41;6051789;23;20026;-73
2023/12/09 04:01:36;;;;;;;5.35;5.05;;;;;;;4.28;100.00;100585.38;6056408;23;20064;-75
2023/12/09 04:04:06;;;;;;;8.60;4.65;;;;;;;4.24;100.00;100549.16;6053876;23;20189;-73
2023/12/09 04:06:33;;;;;;;3.97;3.78;;;;;;;4.23;100.00;100589.88;6035950;23;20037;-74
2023/12/09 04:09:00;;;;;;;5.35;3.65;;;;;;;4.22;100.00;100556.97;6036452;23;20099;-74
2023/12/09 04:11:27;;;;;;;4.85;4.55;;;;;;;4.05;100.00;100553.97;6051140;23;20342;-75
2023/12/09 04:13:56;;;;;;;3.72;3.42;;;;;;;4.22;100.00;100580.34;6048152;23;20005;-75
2023/12/09 04:16:26;;;;;;;3.45;3.33;;;;;;;4.19;100.00;100575.25;6053681;23;20023;-72
2023/12/09 04:18:55;;;;;;;3.42;3.33;;;;;;;4.18;100.00;100578.72;6070141;23;20037;-72
2023/12/09 04:21:23;;;;;;;4.00;3.75;;;;;;;4.15;100.00;100574.50;6050219;23;20187;-73
2023/12/09 04:23:50;;;;;;;3.55;3.35;;;;;;;4.17;100.00;100597.81;6055136;23;20085;-72
2023/12/09 04:26:21;;;;;;;3.40;3.30;;;;;;;3.86;100.00;100523.34;6032522;23;20025;-73
2023/12/09 04:28:50;;;;;;;3.33;3.22;;;;;;;4.25;100.00;100592.41;6084665;23;20072;-73
2023/12/09 04:31:23;;;;;;;3.50;3.30;;;;;;;4.33;100.00;100595.63;6056621;23;20432;-74
2023/12/09 04:33:50;;;;;;;7.43;3.63;;;;;;;4.40;100.00;100584.19;6079092;23;20022;-74
2023/12/09 04:36:19;;;;;;;7.03;3.97;;;;;;;3.88;100.00;100503.38;6063286;23;20030;-74
2023/12/09 04:38:47;;;;;;;3.90;3.70;;;;;;;4.38;100.00;100579.03;6064571;23;20033;-73
2023/12/09 04:41:15;;;;;;;3.22;3.13;;;;;;;4.24;100.00;100562.13;6025482;23;20085;-75
2023/12/09 04:43:42;;;;;;;4.00;3.80;;;;;;;4.32;100.00;100586.16;6079698;23;20017;-74
2023/12/09 04:46:09;;;;;;;3.53;3.30;;;;;;;3.97;100.00;100531.69;6056178;23;20038;-75
2023/12/09 04:48:39;;;;;;;3.58;3.47;;;;;;;3.92;100.00;100533.56;6052734;23;20029;-74
2023/12/09 04:51:09;;;;;;;4.65;4.45;;;;;;;3.66;100.00;100492.72;6051416;23;20042;-74
2023/12/09 04:53:43;;;;;;;5.28;4.88;;;;;;;3.71;100.00;100502.97;6080650;23;20042;-76
2023/12/09 04:56:16;;;;;;;3.70;3.50;;;;;;;4.16;100.00;100567.53;6030710;23;20052;-73
2023/12/09 04:58:46;;;;;;;3.75;3.47;;;;;;;3.42;100.00;100450.13;6058916;23;19998;-72
2023/12/09 05:01:12;;;;;;;3.28;3.17;;;;;;;3.94;100.00;100530.94;6056834;23;20197;-73
2023/12/09 05:03:39;;;;;;;4.70;4.45;;;;;;;4.14;100.00;100556.34;6048042;23;20013;-76
2023/12/09 05:06:08;;;;;;;3.90;3.70;;;;;;;4.09;100.00;100550.41;6022806;23;20015;-72
2023/12/09 05:08:35;;;;;;;3.22;3.13;;;;;;;3.77;100.00;100505.44;6065482;23;20426;-74
2023/12/09 05:11:02;;;;;;;4.63;4.28;;;;;;;4.09;100.00;100558.19;6026610;23;20049;-73
2023/12/09 05:13:28;;;;;;;4.70;4.40;;;;;;;3.51;100.00;100456.84;6080211;23;20115;-75
2023/12/09 05:16:05;;;;;;;3.70;3.50;;;;;;;4.13;100.00;100554.63;6054967;23;20391;-75
2023/12/09 05:18:34;;;;;;;3.47;3.28;;;;;;;4.07;100.00;100560.00;6080271;23;20460;-75
2023/12/09 05:21:06;;;;;;;3.65;3.45;;;;;;;4.02;100.00;100552.34;6030411;23;20038;-75
2023/12/09 05:23:47;;;;;;;5.20;4.80;;;;;;;3.98;100.00;100540.34;5986223;23;20105;-74
2023/12/09 05:26:25;;;;;;;5.53;4.55;;;;;;;2.79;100.00;100353.28;6015453;23;20080;-74
2023/12/09 05:28:57;;;;;;;7.03;3.97;;;;;;;3.93;100.00;100539.59;6056227;23;20042;-76
2023/12/09 05:31:38;;;;;;;5.68;5.30;;;;;;;3.53;100.00;100471.47;6083387;23;20385;-76
2023/12/09 05:34:14;;;;;;;3.85;3.65;;;;;;;3.77;100.00;100508.03;6030775;23;20050;-75
2023/12/09 05:36:50;;;;;;;4.15;3.85;;;;;;;3.88;100.00;100539.72;6082509;23;20460;-76
2023/12/09 05:39:17;;;;;;;4.55;4.25;;;;;;;3.87;100.00;100538.03;6025761;23;20771;-77
2023/12/09 05:41:53;;;;;;;3.38;3.28;;;;;;;3.87;100.00;100545.81;6081868;23;20026;-74
2023/12/09 05:44:19;;;;;;;4.20;3.78;;;;;;;3.80;100.00;100537.34;6053165;23;20485;-74
2023/12/09 05:46:47;;;;;;;3.40;3.28;;;;;;;3.79;100.00;100540.84;6074057;23;20233;-74
2023/12/09 05:52:46;;;;;;;;;;;;;;;;;;;;;
2023/12/09 05:55:33;;;;;;;;;;;;;;;2.61;100.00;100352.00;5884779;24;20013;-75
2023/12/09 05:58:35;;;;;;;;;;;;;;;;;;;;;
2023/12/09 06:01:44;;;;;;;3.78;3.58;;;;;;;3.73;100.00;100546.19;5935750;24;20028;-75
2023/12/09 06:05:19;;;;;;;4.70;3.95;;;;;;;3.64;100.00;100519.63;5891281;24;20028;-74
2023/12/09 06:08:10;;;;;;;3.67;3.47;;;;;;;3.99;100.00;100542.88;5942944;24;20109;-75
2023/12/09 06:12:07;;;;;;;4.00;3.80;;;;;;;4.18;100.00;100556.19;5890161;24;20033;-75
2023/12/09 06:14:51;;;;;;;3.65;3.45;;;;;;;4.25;100.00;100545.63;5770093;24;20104;-75
2023/12/09 06:18:33;;;;;;;4.93;4.68;;;;;;;4.31;100.00;100559.31;5738853;24;20148;-74
2023/12/09 06:21:37;;;;;;;3.28;3.17;;;;;;;3.80;100.00;100469.00;5739530;24;20031;-76
2023/12/09 06:24:07;;;;;;;4.10;3.72;;;;;;;3.18;100.00;100360.88;5870503;23;20486;-75
2023/12/09 06:26:42;;;;;;;3.42;3.33;;;;;;;4.37;100.00;100551.34;5939389;24;20032;-75
2023/12/09 06:29:24;;;;;;;4.35;4.05;;;;;;;4.47;100.00;100564.06;5956887;23;20032;-75
2023/12/09 06:31:52;;;;;;;3.50;3.30;;;;;;;3.86;100.00;100455.00;5948607;23;20036;-75
2023/12/09 06:34:20;;;;;;;3.90;3.70;;;;;;;4.39;100.00;100549.56;6072803;23;20026;-75
2023/12/09 06:36:52;;;;;;;3.70;3.50;;;;;;;4.34;100.00;100543.63;6053049;23;20382;-75
2023/12/09 06:39:24;;;;;;;3.13;3.03;;;;;;;3.37;100.00;100379.38;6082649;23;20089;-74
2023/12/09 06:41:51;;;;;;;4.25;3.85;;;;;;;4.34;100.00;100535.00;6047355;23;20234;-75
2023/12/09 06:44:18;;;;;;;3.80;3.60;;;;;;;4.32;100.00;100535.03;6052930;23;20030;-75
2023/12/09 06:46:44;;;;;;;3.60;3.40;;;;;;;4.30;100.00;100530.78;6047151;23;20437;-75
2023/12/09 06:49:11;;;;;;;5.60;5.22;;;;;;;3.96;100.00;100474.63;6069304;23;20230;-74
2023/12/09 06:52:20;;;;;;;;;;;;;;;;;;;;;
2023/12/09 06:55:17;;;;;;;3.85;3.65;;;;;;;4.19;100.00;100512.94;6070884;23;20791;-75
2023/12/09 06:57:59;;;;;;;;;;;;;;;;;;;;;
2023/12/09 07:00:43;;;;;;;3.40;3.30;;;;;;;3.64;100.00;100403.69;6071483;23;20022;-75
2023/12/09 07:03:11;;;;;;;3.80;3.60;;;;;;;4.28;100.00;100501.41;6025946;23;20101;-76
2023/12/09 07:05:38;;;;;;;5.95;5.55;;;;;;;2.93;100.00;100281.19;6073550;23;20017;-75
2023/12/09 07:08:04;;;;;;;3.30;3.20;;;;;;;4.29;100.00;100510.88;6040427;23;20283;-74
2023/12/09 07:10:31;;;;;;;3.55;3.35;;;;;;;4.23;100.00;100492.88;6059162;23;20038;-76
2023/12/09 07:12:57;;;;;;;4.35;4.05;;;;;;;4.18;100.00;100488.66;6050416;23;20226;-75
2023/12/09 07:15:24;;;;;;;5.15;4.20;;;;;;;4.19;100.00;100487.78;6058945;23;20029;-75
2023/12/09 07:17:51;;;;;;;3.72;3.53;;;;;;;4.19;100.00;100481.75;6049582;23;20026;-74
2023/12/09 07:20:18;;;;;;;4.82;4.53;;;;;;;4.20;100.00;100479.09;6074769;23;20095;-75
2023/12/09 07:22:44;;;;;;;10.27;4.03;;;;;;;3.32;100.00;100335.41;6054013;23;20263;-75
2023/12/09 07:25:11;;;;;;;3.80;3.63;;;;;;;4.25;100.00;100481.56;6077453;23;20487;-75
2023/12/09 07:27:37;;;;;;;4.93;4.68;;;;;;;4.21;100.00;100479.97;6050707;23;20179;-75
2023/12/09 07:30:05;;;;;;;4.10;3.90;;;;;;;4.26;100.00;100482.41;6051526;23;20049;-75
2023/12/09 07:32:32;;;;;;;3.50;3.30;;;;;;;4.25;100.00;100475.50;6053956;23;20026;-74
2023/12/09 07:34:58;;;;;;;3.17;3.08;;;;;;;3.73;100.00;100387.03;6078508;23;20038;-75
2023/12/09 07:37:25;;;;;;;4.53;4.32;;;;;;;3.83;100.00;100387.59;6047441;23;20038;-77
2023/12/09 07:39:52;;;;;;;6.97;4.25;;;;;;;2.90;100.00;100224.22;6063328;23;20026;-75
2023/12/09 07:42:18;;;;;;;3.55;3.35;;;;;;;4.12;100.00;100420.50;6037903;23;20470;-76
2023/12/09 07:44:45;;;;;;;4.65;4.35;;;;;;;4.39;100.00;100460.38;6082902;23;20197;-74
2023/12/09 07:47:11;;;;;;;5.15;4.57;;;;;;;4.44;100.00;100457.63;6051020;23;20481;-74
2023/12/09 07:49:38;;;;;;;6.13;5.82;;;;;;;4.20;100.00;100405.53;6052561;23;20040;-74
2023/12/09 07:52:08;;;;;;;3.97;3.78;;;;;;;4.07;100.00;100360.91;6047150;23;20038;-73
2023/12/09 07:54:35;;;;;;;3.95;3.67;;;;;;;4.19;100.00;100372.66;6057160;23;20067;-71
2023/12/09 07:57:02;;;;;;;3.53;3.33;;;;;;;4.51;100.00;100420.16;6049804;23;20178;-71
2023/12/09 07:59:28;;;;;;;5.63;5.25;;;;;;;4.62;100.00;100412.03;6070610;23;20097;-71
2023/12/09 08:01:55;;;;;;;5.18;3.80;;;;;;;4.61;100.00;100406.00;6030597;23;20335;-71
2023/12/09 08:04:21;;;;;;;3.70;3.50;;;;;;;4.70;100.00;100410.03;6054217;23;20018;-72
2023/12/09 08:06:47;;;;;;;3.60;3.40;;;;;;;4.20;100.00;100314.63;6047055;23;20096;-72
2023/12/09 08:09:15;;;;;;;4.32;4.10;;;;;;;4.70;100.00;100384.03;6078253;23;20836;-72
2023/12/09 08:11:42;;;;;;;3.63;3.45;;;;;;;4.22;100.00;100288.59;6044986;23;20338;-72
2023/12/09 08:14:08;;;;;;;3.83;3.63;;;;;;;4.86;100.00;100350.56;6079837;23;20449;-71
2023/12/09 08:16:36;;;;;;;3.30;3.10;;;;;;;5.01;100.00;100368.22;6053057;23;20026;-72
2023/12/09 08:19:03;;;;;;;3.75;3.55;;;;;;;4.57;100.00;100292.59;6074400;23;20190;-71
2023/12/09 08:21:35;;;;;;;5.10;4.80;;;;;;;5.03;100.00;100344.78;6047065;23;20512;-71
2023/12/09 08:24:01;;;;;;;3.80;3.60;;;;;;;5.17;100.00;100348.63;6073753;23;20017;-71
2023/12/09 08:26:31;;;;;;;3.67;3.47;;;;;;;5.25;100.00;100326.66;6051612;23;20022;-71
2023/12/09 08:28:57;;;;;;;3.92;3.72;;;;;;;5.27;100.00;100325.72;6078199;23;20037;-72
2023/12/09 08:31:24;;;;;;;4.65;4.35;;;;;;;5.35;100.00;100330.63;6022170;23;20054;-71
2023/12/09 08:33:50;;;;;;;3.97;3.75;;;;;;;5.36;100.00;100334.94;6079137;23;20036;-70
2023/12/09 08:36:17;;;;;;;4.07;3.88;;;;;;;5.26;100.00;100308.41;6047410;23;20226;-70
2023/12/09 08:38:44;;;;;;;4.03;3.83;;;;;;;5.10;100.00;100263.03;6078272;23;20042;-71
2023/12/09 08:41:10;;;;;;;4.47;4.28;;;;;;;4.75;100.00;100190.63;6051369;23;20433;-72
2023/12/09 08:43:36;;;;;;;6.75;6.32;;;;;;;5.31;100.00;100284.81;6050613;23;20018;-72
2023/12/09 08:46:03;;;;;;;4.82;4.53;;;;;;;5.37;100.00;100287.19;6028783;23;20104;-71
2023/12/09 08:48:30;;;;;;;3.60;3.40;;;;;;;5.55;100.00;100299.53;6070427;23;20034;-71
2023/12/09 08:50:56;;;;;;;4.07;3.88;;;;;;;5.63;100.00;100290.56;6053845;23;20038;-71
2023/12/09 08:53:23;;;;;;;4.15;3.95;;;;;;;5.65;100.00;100278.31;6053967;23;20237;-71
2023/12/09 08:55:49;;;;;;;4.72;4.38;;;;;;;5.65;100.00;100267.91;6051674;23;20026;-72
2023/12/09 08:58:16;;;;;;;4.43;4.07;;;;;;;5.85;100.00;100287.97;6079755;23;20025;-74
2023/12/09 09:00:42;;;;;;;5.30;4.80;;;;;;;5.69;100.00;100248.66;6023063;23;20120;-71
2023/12/09 09:03:09;;;;;;;4.78;4.45;;;;;;;5.89;100.00;100264.34;6079358;23;20032;-73
2023/12/09 09:05:36;;;;;;;5.35;5.05;;;;;;;5.91;100.00;100257.34;6045233;23;20056;-71
2023/12/09 09:08:02;;;;;;;4.72;4.43;;;;;;;5.66;100.00;100189.75;6080326;23;20026;-71
2023/12/09 09:11:13;;;;;;;24.77;23.50;;;;;;;5.96;100.00;100226.78;5994308;23;20900;-70
2023/12/09 09:14:00;;;;;;;4.72;4.10;;;;;;;6.11;100.00;100233.09;6059740;23;20571;-71
2023/12/09 09:16:27;;;;;;;4.57;4.38;;;;;;;6.12;100.00;100205.31;6030390;23;20024;-72
2023/12/09 09:18:54;;;;;;;3.97;3.78;;;;;;;6.07;100.00;100186.41;6078454;23;20307;-71
2023/12/09 09:21:21;;;;;;;5.32;4.82;;;;;;;5.83;100.00;100134.38;6048917;23;20032;-70
2023/12/09 09:23:49;;;;;;;4.68;4.43;;;;;;;6.08;100.00;100149.03;6075657;23;20018;-71
2023/12/09 09:26:15;;;;;;;4.35;4.05;;;;;;;5.85;100.00;100093.50;6029541;23;20034;-71
2023/12/09 09:28:43;;;;;;;4.80;4.47;;;;;;;6.35;100.00;100144.38;6081993;23;20033;-71
2023/12/09 09:31:12;;;;;;;4.30;4.10;;;;;;;6.41;100.00;100132.84;6046232;23;20026;-73
2023/12/09 09:33:38;;;;;;;5.40;5.20;;;;;;;6.13;100.00;100084.53;6078133;23;20032;-70
2023/12/09 09:36:05;;;;;;;3.70;3.50;;;;;;;6.36;100.00;100094.81;6052785;23;20022;-72
2023/12/09 09:38:32;;;;;;;3.95;3.75;;;;;;;6.47;100.00;100091.72;6074544;23;20099;-70
2023/12/09 09:40:58;;;;;;;4.47;4.18;;;;;;;6.52;100.00;100081.94;6044862;23;20065;-70
2023/12/09 09:43:30;;;;;;;5.13;4.78;;;;;;;5.82;100.00;99957.41;6052816;23;20080;-70
2023/12/09 09:45:57;;;;;;;4.03;3.83;;;;;;;6.72;100.00;100069.75;6078954;23;20070;-72
2023/12/09 09:48:24;;;;;;;3.92;3.72;;;;;;;6.78;100.00;100040.78;6023874;23;20555;-70
2023/12/09 09:50:52;;;;;;;3.70;3.50;;;;;;;6.73;100.00;100001.88;6081375;23;20021;-71
2023/12/09 09:53:44;;;;;;;4.05;3.80;;;;;;;6.91;100.00;100001.91;6047810;23;20021;-70
2023/12/09 09:56:11;;;;;;;4.68;4.10;;;;;;;6.62;100.00;99930.31;6079696;23;20073;-70
2023/12/09 09:58:37;;;;;;;4.35;3.95;;;;;;;6.97;100.00;99957.25;6025680;23;20402;-71
2023/12/09 10:01:04;;;;;;;4.45;4.25;;;;;;;6.53;100.00;99853.38;6033631;23;20036;-71
2023/12/09 10:03:31;;;;;;;5.25;4.95;;;;;;;6.72;100.00;99875.03;6026971;23;20035;-71
2023/12/09 10:05:58;;;;;;;3.90;3.70;;;;;;;6.95;100.00;99894.72;6045751;23;20038;-71
2023/12/09 10:08:24;;;;;;;3.80;3.63;;;;;;;6.94;100.00;99877.41;6068964;23;20347;-71
2023/12/09 10:10:51;;;;;;;6.10;4.10;;;;;;;6.67;100.00;99814.44;6049040;23;20551;-71
2023/12/09 10:13:20;;;;;;;9.23;4.38;;;;;;;5.71;100.00;99648.09;6025875;23;20281;-70
2023/12/09 10:15:47;;;;;;;4.30;4.00;;;;;;;6.83;100.00;99843.19;6076559;23;20339;-71
2023/12/09 10:18:14;;;;;;;4.55;4.35;;;;;;;6.86;100.00;99797.88;6037822;23;20033;-71
2023/12/09 10:20:41;;;;;;;6.57;4.18;;;;;;;7.06;100.00;99823.78;6077569;23;20046;-71
2023/12/09 10:23:08;;;;;;;3.95;3.75;;;;;;;7.14;100.00;99818.16;6052497;23;20507;-71
2023/12/09 10:25:34;;;;;;;5.55;5.32;;;;;;;6.16;100.00;99629.38;6073960;23;20045;-71
2023/12/09 10:28:01;;;;;;;3.85;3.65;;;;;;;7.43;100.00;99808.78;6027750;23;20034;-73
2023/12/09 10:30:28;;;;;;;6.57;4.80;;;;;;;7.48;100.00;99753.72;6045496;23;20083;-71
2023/12/09 10:32:55;;;;;;;3.88;3.67;;;;;;;7.82;100.00;99767.50;6046014;23;20031;-71
2023/12/09 10:35:22;;;;;;;6.20;5.68;;;;;;;7.90;100.00;99719.16;6052355;23;20551;-70
2023/12/09 10:37:49;;;;;;;4.20;4.00;;;;;;;8.18;100.00;99705.34;6045509;23;20047;-72
2023/12/09 10:40:17;;;;;;;4.68;4.32;;;;;;;8.24;100.00;99670.16;6049926;23;20117;-72
2023/12/09 10:42:44;;;;;;;4.80;4.60;;;;;;;8.20;100.00;99611.16;6042850;23;20014;-72
2023/12/09 10:45:11;;;;;;;4.57;4.28;;;;;;;8.39;100.00;99589.97;6079153;23;20177;-72
2023/12/09 10:47:38;;;;;;;5.63;5.32;;;;;;;8.41;100.00;99584.66;6040075;23;20033;-72
2023/12/09 10:50:05;;;;;;;4.32;4.13;;;;;;;8.38;100.00;99565.59;6066831;23;20174;-71
2023/12/09 10:52:32;;;;;;;5.80;5.10;;;;;;;8.41;100.00;99550.66;6050923;23;20034;-71
2023/12/09 10:55:02;;;;;;;4.50;4.30;;;;;;;8.06;100.00;99517.06;6046885;23;20021;-71
2023/12/09 10:57:30;;;;;;;6.00;5.55;;;;;;;8.27;100.00;99535.81;6033490;23;20025;-71
2023/12/09 11:00:01;;;;;;;4.50;4.30;;;;;;;8.22;100.00;99543.09;6059687;23;20025;-71
2023/12/09 11:02:28;;;;;;;4.60;4.30;;;;;;;8.05;100.00;99518.00;6048312;23;20025;-72
2023/12/09 11:04:56;;;;;;;3.90;3.70;;;;;;;8.14;100.00;99535.75;6078207;23;20354;-71
2023/12/09 11:07:28;;;;;;;5.72;5.22;;;;;;;8.12;100.00;99517.53;6038658;23;20198;-71
2023/12/09 11:09:55;;;;;;;4.30;4.00;;;;;;;7.83;100.00;99464.44;6079188;23;20308;-71
2023/12/09 11:12:30;;;;;;;4.38;4.07;;;;;;;7.97;100.00;99469.66;6045412;23;20033;-70
2023/12/09 11:15:12;;;;;;;4.38;4.18;;;;;;;8.13;100.00;99484.41;6080083;23;20111;-72
2023/12/09 11:17:41;;;;;;;5.82;5.53;;;;;;;7.82;100.00;99436.66;6050845;23;20287;-71
2023/12/09 11:20:10;;;;;;;4.03;3.83;;;;;;;7.63;100.00;99413.41;6071119;23;20794;-71
2023/12/09 11:22:40;;;;;;;6.55;4.40;;;;;;;8.06;100.00;99478.72;6046053;23;20740;-70
2023/12/09 11:25:26;;;;;;;4.00;3.80;;;;;;;7.98;100.00;99471.34;6067710;23;20028;-72
2023/12/09 11:27:53;;;;;;;3.95;3.75;;;;;;;7.97;100.00;99472.28;6046376;23;20167;-72
2023/12/09 11:30:38;;;;;;;4.50;4.25;;;;;;;7.99;100.00;99465.19;6066412;23;20124;-71
2023/12/09 11:33:05;;;;;;;6.53;3.80;;;;;;;7.94;100.00;99467.25;6047514;23;20081;-71
2023/12/09 11:35:36;;;;;;;6.95;6.22;;;;;;;7.95;100.00;99479.38;6070529;23;20025;-71
2023/12/09 11:38:07;;;;;;;6.18;4.47;;;;;;;7.83;100.00;99455.78;6044674;23;20026;-71
2023/12/09 11:40:34;;;;;;;6.93;4.47;;;;;;;7.88;100.00;99483.28;6075652;23;20034;-71
2023/12/09 11:43:03;;;;;;;4.13;3.92;;;;;;;8.02;100.00;99499.88;6048365;23;20088;-72
2023/12/09 11:45:29;;;;;;;5.60;5.30;;;;;;;7.70;100.00;99438.25;6069904;23;20051;-71
2023/12/09 11:47:59;;;;;;;6.07;5.60;;;;;;;7.93;100.00;99478.63;6020365;23;20130;-71
2023/12/09 11:50:27;;;;;;;4.10;3.90;;;;;;;7.65;100.00;99447.28;6067443;23;20166;-70